sensor_id;sensor_type;location;lat;lon;timestamp;pressure;altitude;pressure_sealevel;temperature;humidity
71299;BME280;59083;47.974;21.722;2023-04-10T00:00:52;101069.78;;;6.23;78.98
71299;BME280;59083;47.974;21.722;2023-04-10T00:03:57;101062.41;;;6.17;79.04
71299;BME280;59083;47.974;21.722;2023-04-10T00:06:58;101066.47;;;6.12;79.56
71299;BME280;59083;47.974;21.722;2023-04-10T00:09:59;101059.22;;;6.04;79.56
71299;BME280;59083;47.974;21.722;2023-04-10T00:13:00;101059.53;;;6.01;79.65
71299;BME280;59083;47.974;21.722;2023-04-10T00:16:03;101057.84;;;6.00;79.64
71299;BME280;59083;47.974;21.722;2023-04-10T00:19:05;101054.91;;;5.94;79.86
71299;BME280;59083;47.974;21.722;2023-04-10T00:22:08;101054.78;;;5.95;79.92
71299;BME280;59083;47.974;21.722;2023-04-10T00:25:09;101033.22;;;5.80;80.10
71299;BME280;59083;47.974;21.722;2023-04-10T00:28:10;101051.44;;;5.93;80.01
71299;BME280;59083;47.974;21.722;2023-04-10T00:31:11;101058.69;;;5.91;80.83
71299;BME280;59083;47.974;21.722;2023-04-10T00:34:13;101050.91;;;5.90;80.56
71299;BME280;59083;47.974;21.722;2023-04-10T00:37:14;101049.75;;;5.82;81.01
71299;BME280;59083;47.974;21.722;2023-04-10T00:40:15;101048.78;;;5.74;81.53
71299;BME280;59083;47.974;21.722;2023-04-10T00:43:17;101048.09;;;5.72;81.80
71299;BME280;59083;47.974;21.722;2023-04-10T00:46:20;101047.81;;;5.75;81.46
71299;BME280;59083;47.974;21.722;2023-04-10T00:49:21;101046.44;;;5.80;81.25
71299;BME280;59083;47.974;21.722;2023-04-10T00:52:24;101048.25;;;5.80;81.40
71299;BME280;59083;47.974;21.722;2023-04-10T00:55:26;101043.91;;;5.79;81.01
71299;BME280;59083;47.974;21.722;2023-04-10T00:58:27;101045.19;;;5.75;81.16
71299;BME280;59083;47.974;21.722;2023-04-10T01:01:28;101038.06;;;5.75;81.37
71299;BME280;59083;47.974;21.722;2023-04-10T01:04:31;101042.53;;;5.75;80.98
71299;BME280;59083;47.974;21.722;2023-04-10T01:08:01;101034.16;;;5.70;81.73
71299;BME280;59083;47.974;21.722;2023-04-10T01:17:57;101031.97;;;5.56;82.11
71299;BME280;59083;47.974;21.722;2023-04-10T01:21:04;101029.16;;;5.48;82.71
71299;BME280;59083;47.974;21.722;2023-04-10T01:31:07;101019.69;;;5.26;83.83
71299;BME280;59083;47.974;21.722;2023-04-10T01:34:18;101014.94;;;5.20;84.14
71299;BME280;59083;47.974;21.722;2023-04-10T01:37:26;101008.00;;;5.19;83.83
71299;BME280;59083;47.974;21.722;2023-04-10T01:40:30;101014.25;;;5.08;84.70
71299;BME280;59083;47.974;21.722;2023-04-10T01:43:33;101013.25;;;4.99;85.32
71299;BME280;59083;47.974;21.722;2023-04-10T01:46:36;101005.75;;;4.95;85.73
71299;BME280;59083;47.974;21.722;2023-04-10T01:49:39;101008.09;;;4.88;85.91
71299;BME280;59083;47.974;21.722;2023-04-10T01:52:45;101005.72;;;4.85;86.38
71299;BME280;59083;47.974;21.722;2023-04-10T01:55:49;101008.66;;;4.92;86.32
71299;BME280;59083;47.974;21.722;2023-04-10T01:58:50;101011.28;;;4.92;86.31
71299;BME280;59083;47.974;21.722;2023-04-10T02:01:59;101010.75;;;4.98;85.86
71299;BME280;59083;47.974;21.722;2023-04-10T02:05:01;101009.66;;;5.01;86.14
71299;BME280;59083;47.974;21.722;2023-04-10T02:08:11;101011.03;;;4.95;86.55
71299;BME280;59083;47.974;21.722;2023-04-10T02:11:32;100997.38;;;4.90;86.50
71299;BME280;59083;47.974;21.722;2023-04-10T02:14:40;101009.06;;;4.87;86.90
71299;BME280;59083;47.974;21.722;2023-04-10T02:17:43;100991.84;;;4.83;86.80
71299;BME280;59083;47.974;21.722;2023-04-10T02:20:45;101002.53;;;4.82;86.70
71299;BME280;59083;47.974;21.722;2023-04-10T02:23:46;101001.28;;;4.86;86.65
71299;BME280;59083;47.974;21.722;2023-04-10T02:26:50;100997.94;;;4.84;86.74
71299;BME280;59083;47.974;21.722;2023-04-10T02:29:52;100994.59;;;4.82;87.18
71299;BME280;59083;47.974;21.722;2023-04-10T02:32:53;101001.25;;;4.76;87.09
71299;BME280;59083;47.974;21.722;2023-04-10T02:35:55;101008.59;;;4.73;87.11
71299;BME280;59083;47.974;21.722;2023-04-10T02:38:57;100991.75;;;4.64;87.55
71299;BME280;59083;47.974;21.722;2023-04-10T02:41:58;100994.81;;;4.60;88.04
71299;BME280;59083;47.974;21.722;2023-04-10T02:44:59;101002.84;;;4.58;88.43
71299;BME280;59083;47.974;21.722;2023-04-10T02:48:04;100990.06;;;4.53;89.02
71299;BME280;59083;47.974;21.722;2023-04-10T02:51:06;100996.75;;;4.57;88.55
71299;BME280;59083;47.974;21.722;2023-04-10T02:54:08;100992.16;;;4.60;89.19
71299;BME280;59083;47.974;21.722;2023-04-10T02:57:10;100989.84;;;4.66;88.59
71299;BME280;59083;47.974;21.722;2023-04-10T03:00:12;100993.75;;;4.72;89.06
71299;BME280;59083;47.974;21.722;2023-04-10T03:03:20;101007.09;;;4.80;88.48
71299;BME280;59083;47.974;21.722;2023-04-10T03:06:21;100991.41;;;4.88;87.97
71299;BME280;59083;47.974;21.722;2023-04-10T03:09:26;100996.41;;;4.91;87.67
71299;BME280;59083;47.974;21.722;2023-04-10T03:12:27;100989.91;;;4.95;87.86
71299;BME280;59083;47.974;21.722;2023-04-10T03:15:30;100985.31;;;4.97;87.65
71299;BME280;59083;47.974;21.722;2023-04-10T03:18:33;100984.62;;;4.95;87.14
71299;BME280;59083;47.974;21.722;2023-04-10T03:21:34;100985.84;;;4.91;87.87
71299;BME280;59083;47.974;21.722;2023-04-10T03:24:35;100982.53;;;4.89;88.01
71299;BME280;59083;47.974;21.722;2023-04-10T03:27:38;100988.75;;;4.78;88.93
71299;BME280;59083;47.974;21.722;2023-04-10T03:30:39;100990.56;;;4.78;88.91
71299;BME280;59083;47.974;21.722;2023-04-10T03:33:41;100991.25;;;4.80;89.39
71299;BME280;59083;47.974;21.722;2023-04-10T03:36:42;100992.09;;;4.80;89.14
71299;BME280;59083;47.974;21.722;2023-04-10T03:39:43;100987.94;;;4.78;89.37
71299;BME280;59083;47.974;21.722;2023-04-10T03:42:47;100986.50;;;4.74;89.57
71299;BME280;59083;47.974;21.722;2023-04-10T03:45:49;100988.19;;;4.75;89.26
71299;BME280;59083;47.974;21.722;2023-04-10T03:48:51;100990.09;;;4.73;89.70
71299;BME280;59083;47.974;21.722;2023-04-10T03:51:54;100994.28;;;4.66;89.58
71299;BME280;59083;47.974;21.722;2023-04-10T03:54:56;100990.53;;;4.68;89.77
71299;BME280;59083;47.974;21.722;2023-04-10T03:57:58;100992.59;;;4.65;90.51
71299;BME280;59083;47.974;21.722;2023-04-10T04:00:59;101000.66;;;4.73;90.19
71299;BME280;59083;47.974;21.722;2023-04-10T04:04:02;101007.94;;;4.80;89.71
71299;BME280;59083;47.974;21.722;2023-04-10T04:07:08;100995.56;;;4.81;89.93
71299;BME280;59083;47.974;21.722;2023-04-10T04:10:12;100997.13;;;4.83;90.02
71299;BME280;59083;47.974;21.722;2023-04-10T04:13:14;101010.16;;;4.85;89.91
71299;BME280;59083;47.974;21.722;2023-04-10T04:16:17;101001.84;;;4.89;89.81
71299;BME280;59083;47.974;21.722;2023-04-10T04:19:18;101007.69;;;4.93;89.54
71299;BME280;59083;47.974;21.722;2023-04-10T04:22:23;101004.88;;;4.85;89.68
71299;BME280;59083;47.974;21.722;2023-04-10T04:25:27;101008.50;;;4.84;90.21
71299;BME280;59083;47.974;21.722;2023-04-10T04:28:31;101008.22;;;4.87;89.92
71299;BME280;59083;47.974;21.722;2023-04-10T04:31:32;100999.06;;;4.91;89.80
71299;BME280;59083;47.974;21.722;2023-04-10T04:34:35;101006.56;;;4.95;89.85
71299;BME280;59083;47.974;21.722;2023-04-10T04:37:37;101009.06;;;4.97;89.96
71299;BME280;59083;47.974;21.722;2023-04-10T04:40:38;101011.28;;;4.92;90.13
71299;BME280;59083;47.974;21.722;2023-04-10T04:43:39;101014.91;;;4.91;90.09
71299;BME280;59083;47.974;21.722;2023-04-10T04:46:41;101032.69;;;4.89;90.68
71299;BME280;59083;47.974;21.722;2023-04-10T04:49:43;101017.97;;;4.96;89.83
71299;BME280;59083;47.974;21.722;2023-04-10T04:52:45;101022.28;;;4.97;89.84
71299;BME280;59083;47.974;21.722;2023-04-10T04:55:46;101017.97;;;4.96;89.58
71299;BME280;59083;47.974;21.722;2023-04-10T04:58:48;101020.47;;;5.07;89.64
71299;BME280;59083;47.974;21.722;2023-04-10T05:01:49;101010.37;;;5.12;89.17
71299;BME280;59083;47.974;21.722;2023-04-10T05:04:51;101016.63;;;5.11;89.43
71299;BME280;59083;47.974;21.722;2023-04-10T05:07:53;101023.84;;;5.19;89.23
71299;BME280;59083;47.974;21.722;2023-04-10T05:10:55;101026.66;;;5.36;88.86
71299;BME280;59083;47.974;21.722;2023-04-10T05:13:56;101034.56;;;5.36;89.15
71299;BME280;59083;47.974;21.722;2023-04-10T05:16:58;101028.19;;;5.49;88.70
71299;BME280;59083;47.974;21.722;2023-04-10T05:19:59;101037.25;;;5.56;88.35
71299;BME280;59083;47.974;21.722;2023-04-10T05:23:02;101042.38;;;5.67;88.34
71299;BME280;59083;47.974;21.722;2023-04-10T05:26:06;101035.72;;;5.72;88.04
71299;BME280;59083;47.974;21.722;2023-04-10T05:29:10;101034.19;;;5.79;87.85
71299;BME280;59083;47.974;21.722;2023-04-10T05:32:14;101029.44;;;5.83;87.81
71299;BME280;59083;47.974;21.722;2023-04-10T05:35:16;101050.47;;;5.94;88.43
71299;BME280;59083;47.974;21.722;2023-04-10T05:38:17;101044.22;;;5.95;88.51
71299;BME280;59083;47.974;21.722;2023-04-10T05:41:19;101038.75;;;6.06;88.29
71299;BME280;59083;47.974;21.722;2023-04-10T05:44:25;101042.09;;;6.08;88.54
71299;BME280;59083;47.974;21.722;2023-04-10T05:47:29;101040.00;;;6.12;88.54
71299;BME280;59083;47.974;21.722;2023-04-10T05:50:30;101038.75;;;6.06;89.09
71299;BME280;59083;47.974;21.722;2023-04-10T05:53:32;101037.19;;;6.23;88.97
71299;BME280;59083;47.974;21.722;2023-04-10T05:56:34;101035.22;;;6.35;89.40
71299;BME280;59083;47.974;21.722;2023-04-10T05:59:36;101036.56;;;6.39;90.77
71299;BME280;59083;47.974;21.722;2023-04-10T06:02:37;101035.59;;;6.40;94.39
71299;BME280;59083;47.974;21.722;2023-04-10T06:05:40;101037.69;;;6.46;95.27
71299;BME280;59083;47.974;21.722;2023-04-10T06:08:42;101033.66;;;6.42;97.39
71299;BME280;59083;47.974;21.722;2023-04-10T06:11:43;101029.56;;;6.57;98.68
71299;BME280;59083;47.974;21.722;2023-04-10T06:14:44;101025.66;;;6.51;99.00
71299;BME280;59083;47.974;21.722;2023-04-10T06:17:45;101028.47;;;6.50;100.00
71299;BME280;59083;47.974;21.722;2023-04-10T06:20:47;101033.47;;;6.53;100.00
71299;BME280;59083;47.974;21.722;2023-04-10T06:23:48;101041.13;;;6.56;100.00
71299;BME280;59083;47.974;21.722;2023-04-10T06:26:49;101042.91;;;6.65;100.00
71299;BME280;59083;47.974;21.722;2023-04-10T06:29:51;101039.94;;;6.68;100.00
71299;BME280;59083;47.974;21.722;2023-04-10T06:32:54;101050.81;;;6.75;100.00
71299;BME280;59083;47.974;21.722;2023-04-10T06:35:58;101043.56;;;6.67;100.00
71299;BME280;59083;47.974;21.722;2023-04-10T06:38:59;101040.53;;;6.62;100.00
71299;BME280;59083;47.974;21.722;2023-04-10T06:42:02;101046.53;;;6.64;100.00
71299;BME280;59083;47.974;21.722;2023-04-10T06:45:07;101041.81;;;6.58;100.00
71299;BME280;59083;47.974;21.722;2023-04-10T06:48:09;101037.63;;;6.65;100.00
71299;BME280;59083;47.974;21.722;2023-04-10T06:51:10;101034.06;;;6.74;100.00
71299;BME280;59083;47.974;21.722;2023-04-10T06:54:11;101037.81;;;6.81;100.00
71299;BME280;59083;47.974;21.722;2023-04-10T06:57:13;101037.91;;;6.89;100.00
71299;BME280;59083;47.974;21.722;2023-04-10T07:00:14;101037.03;;;6.98;100.00
71299;BME280;59083;47.974;21.722;2023-04-10T07:03:15;101039.53;;;7.18;100.00
71299;BME280;59083;47.974;21.722;2023-04-10T07:06:17;101040.94;;;7.22;100.00
71299;BME280;59083;47.974;21.722;2023-04-10T07:09:18;101031.94;;;7.32;100.00
71299;BME280;59083;47.974;21.722;2023-04-10T07:12:19;101037.75;;;7.36;100.00
71299;BME280;59083;47.974;21.722;2023-04-10T07:15:20;101042.22;;;7.35;100.00
71299;BME280;59083;47.974;21.722;2023-04-10T07:18:22;101035.28;;;7.34;100.00
71299;BME280;59083;47.974;21.722;2023-04-10T07:21:23;101035.78;;;7.38;100.00
71299;BME280;59083;47.974;21.722;2023-04-10T07:24:24;101035.47;;;7.41;100.00
71299;BME280;59083;47.974;21.722;2023-04-10T07:27:25;101038.72;;;7.35;100.00
71299;BME280;59083;47.974;21.722;2023-04-10T07:30:27;101043.37;;;7.33;100.00
71299;BME280;59083;47.974;21.722;2023-04-10T07:33:28;101044.88;;;7.53;100.00
71299;BME280;59083;47.974;21.722;2023-04-10T07:36:30;101038.00;;;7.60;100.00
71299;BME280;59083;47.974;21.722;2023-04-10T07:39:31;101041.72;;;7.67;100.00
71299;BME280;59083;47.974;21.722;2023-04-10T07:42:33;101040.19;;;7.65;100.00
71299;BME280;59083;47.974;21.722;2023-04-10T07:45:34;101044.00;;;7.62;100.00
71299;BME280;59083;47.974;21.722;2023-04-10T07:48:35;101041.94;;;7.56;100.00
71299;BME280;59083;47.974;21.722;2023-04-10T07:51:36;101046.28;;;7.57;100.00
71299;BME280;59083;47.974;21.722;2023-04-10T07:54:37;101036.25;;;7.51;100.00
71299;BME280;59083;47.974;21.722;2023-04-10T07:57:38;101040.56;;;7.52;100.00
71299;BME280;59083;47.974;21.722;2023-04-10T08:00:40;101030.25;;;7.49;100.00
71299;BME280;59083;47.974;21.722;2023-04-10T08:03:45;101028.97;;;7.53;100.00
71299;BME280;59083;47.974;21.722;2023-04-10T08:06:47;101030.34;;;7.57;100.00
71299;BME280;59083;47.974;21.722;2023-04-10T08:09:50;101034.88;;;7.65;100.00
71299;BME280;59083;47.974;21.722;2023-04-10T08:12:51;101036.41;;;7.67;100.00
71299;BME280;59083;47.974;21.722;2023-04-10T08:15:52;101033.66;;;7.59;100.00
71299;BME280;59083;47.974;21.722;2023-04-10T08:18:54;101037.63;;;7.55;100.00
71299;BME280;59083;47.974;21.722;2023-04-10T08:21:56;101047.84;;;7.50;100.00
71299;BME280;59083;47.974;21.722;2023-04-10T08:24:57;101044.59;;;7.56;100.00
71299;BME280;59083;47.974;21.722;2023-04-10T08:27:59;101040.66;;;7.60;100.00
71299;BME280;59083;47.974;21.722;2023-04-10T08:31:00;101038.31;;;7.57;100.00
71299;BME280;59083;47.974;21.722;2023-04-10T08:34:01;101027.75;;;7.65;100.00
71299;BME280;59083;47.974;21.722;2023-04-10T08:37:04;101020.41;;;7.77;100.00
71299;BME280;59083;47.974;21.722;2023-04-10T08:40:06;101023.56;;;7.80;100.00
71299;BME280;59083;47.974;21.722;2023-04-10T08:43:08;101024.00;;;7.94;100.00
71299;BME280;59083;47.974;21.722;2023-04-10T08:46:09;101010.44;;;7.97;100.00
71299;BME280;59083;47.974;21.722;2023-04-10T08:52:29;101006.78;;;7.98;100.00
71299;BME280;59083;47.974;21.722;2023-04-10T08:55:34;101017.09;;;8.01;100.00
71299;BME280;59083;47.974;21.722;2023-04-10T08:58:35;101012.91;;;7.98;100.00
71299;BME280;59083;47.974;21.722;2023-04-10T09:01:38;101008.78;;;7.96;100.00
71299;BME280;59083;47.974;21.722;2023-04-10T09:04:46;101008.31;;;8.00;100.00
71299;BME280;59083;47.974;21.722;2023-04-10T09:07:49;101009.81;;;8.03;100.00
71299;BME280;59083;47.974;21.722;2023-04-10T09:10:51;101010.34;;;8.06;100.00
71299;BME280;59083;47.974;21.722;2023-04-10T09:13:52;101002.38;;;8.06;100.00
71299;BME280;59083;47.974;21.722;2023-04-10T09:17:15;101005.44;;;7.94;100.00
71299;BME280;59083;47.974;21.722;2023-04-10T09:20:23;101003.25;;;7.89;100.00
71299;BME280;59083;47.974;21.722;2023-04-10T09:23:24;101006.25;;;7.94;100.00
71299;BME280;59083;47.974;21.722;2023-04-10T09:26:32;100999.50;;;8.00;100.00
71299;BME280;59083;47.974;21.722;2023-04-10T09:29:46;101000.13;;;7.94;100.00
71299;BME280;59083;47.974;21.722;2023-04-10T09:32:50;100998.16;;;7.96;100.00
71299;BME280;59083;47.974;21.722;2023-04-10T09:35:51;100994.38;;;7.80;100.00
71299;BME280;59083;47.974;21.722;2023-04-10T09:38:53;100985.75;;;7.78;100.00
71299;BME280;59083;47.974;21.722;2023-04-10T09:41:54;100990.75;;;7.81;100.00
71299;BME280;59083;47.974;21.722;2023-04-10T09:44:55;100990.13;;;7.87;100.00
71299;BME280;59083;47.974;21.722;2023-04-10T09:48:07;101002.13;;;7.92;100.00
71299;BME280;59083;47.974;21.722;2023-04-10T09:51:27;100992.16;;;7.94;100.00
71299;BME280;59083;47.974;21.722;2023-04-10T09:54:34;100992.38;;;8.00;100.00
71299;BME280;59083;47.974;21.722;2023-04-10T09:57:36;101005.66;;;8.00;100.00
71299;BME280;59083;47.974;21.722;2023-04-10T10:00:40;100976.94;;;7.96;100.00
71299;BME280;59083;47.974;21.722;2023-04-10T10:03:42;100979.72;;;7.94;100.00
71299;BME280;59083;47.974;21.722;2023-04-10T10:06:44;100978.28;;;8.00;100.00
71299;BME280;59083;47.974;21.722;2023-04-10T10:09:47;100980.16;;;8.07;100.00
71299;BME280;59083;47.974;21.722;2023-04-10T10:12:57;100974.00;;;8.07;100.00
71299;BME280;59083;47.974;21.722;2023-04-10T10:19:30;100976.25;;;8.19;100.00
71299;BME280;59083;47.974;21.722;2023-04-10T10:22:34;100964.56;;;8.30;100.00
71299;BME280;59083;47.974;21.722;2023-04-10T10:25:35;100961.75;;;8.40;100.00
71299;BME280;59083;47.974;21.722;2023-04-10T10:28:39;100959.31;;;8.46;100.00
71299;BME280;59083;47.974;21.722;2023-04-10T10:31:42;100958.97;;;8.49;100.00
71299;BME280;59083;47.974;21.722;2023-04-10T10:34:44;100953.38;;;8.52;100.00
71299;BME280;59083;47.974;21.722;2023-04-10T10:37:46;100952.37;;;8.61;100.00
71299;BME280;59083;47.974;21.722;2023-04-10T10:41:11;100952.72;;;8.58;100.00
71299;BME280;59083;47.974;21.722;2023-04-10T10:44:19;100950.41;;;8.71;100.00
71299;BME280;59083;47.974;21.722;2023-04-10T10:47:27;100949.44;;;8.73;100.00
71299;BME280;59083;47.974;21.722;2023-04-10T10:50:58;100938.50;;;8.76;100.00
71299;BME280;59083;47.974;21.722;2023-04-10T10:54:00;100938.16;;;8.79;100.00
71299;BME280;59083;47.974;21.722;2023-04-10T10:57:01;100945.47;;;8.77;100.00
71299;BME280;59083;47.974;21.722;2023-04-10T11:00:06;100935.31;;;8.64;100.00
71299;BME280;59083;47.974;21.722;2023-04-10T11:06:10;100943.50;;;8.87;100.00
71299;BME280;59083;47.974;21.722;2023-04-10T11:09:50;100940.84;;;8.87;100.00
71299;BME280;59083;47.974;21.722;2023-04-10T11:13:14;100942.19;;;8.91;100.00
71299;BME280;59083;47.974;21.722;2023-04-10T11:16:15;100940.22;;;8.93;100.00
71299;BME280;59083;47.974;21.722;2023-04-10T11:19:17;100940.84;;;8.87;100.00
71299;BME280;59083;47.974;21.722;2023-04-10T11:22:20;100934.06;;;8.92;100.00
71299;BME280;59083;47.974;21.722;2023-04-10T11:25:21;100924.94;;;9.03;100.00
71299;BME280;59083;47.974;21.722;2023-04-10T11:31:33;100928.59;;;9.18;100.00
71299;BME280;59083;47.974;21.722;2023-04-10T11:34:43;100926.25;;;9.07;100.00
71299;BME280;59083;47.974;21.722;2023-04-10T11:37:44;100924.28;;;9.09;100.00
71299;BME280;59083;47.974;21.722;2023-04-10T11:40:52;100914.97;;;9.13;100.00
71299;BME280;59083;47.974;21.722;2023-04-10T11:43:54;100913.66;;;9.09;100.00
71299;BME280;59083;47.974;21.722;2023-04-10T11:46:56;100924.28;;;9.09;100.00
71299;BME280;59083;47.974;21.722;2023-04-10T11:49:58;100917.28;;;9.08;100.00
71299;BME280;59083;47.974;21.722;2023-04-10T11:52:59;100910.66;;;9.04;100.00
71299;BME280;59083;47.974;21.722;2023-04-10T11:56:00;100910.00;;;9.10;100.00
71299;BME280;59083;47.974;21.722;2023-04-10T11:59:02;100897.87;;;9.16;100.00
71299;BME280;59083;47.974;21.722;2023-04-10T12:02:11;100900.03;;;9.20;100.00
71299;BME280;59083;47.974;21.722;2023-04-10T12:05:16;100896.19;;;9.23;100.00
71299;BME280;59083;47.974;21.722;2023-04-10T12:08:17;100894.53;;;9.30;100.00
71299;BME280;59083;47.974;21.722;2023-04-10T12:11:24;100886.41;;;9.31;100.00
71299;BME280;59083;47.974;21.722;2023-04-10T12:14:33;100884.41;;;9.33;100.00
71299;BME280;59083;47.974;21.722;2023-04-10T12:17:35;100880.87;;;9.41;100.00
71299;BME280;59083;47.974;21.722;2023-04-10T12:20:36;100873.72;;;9.58;100.00
71299;BME280;59083;47.974;21.722;2023-04-10T12:23:38;100865.38;;;9.77;100.00
71299;BME280;59083;47.974;21.722;2023-04-10T12:26:46;100858.34;;;9.92;100.00
71299;BME280;59083;47.974;21.722;2023-04-10T12:29:51;100860.94;;;10.16;100.00
71299;BME280;59083;47.974;21.722;2023-04-10T12:32:52;100855.28;;;10.19;100.00
71299;BME280;59083;47.974;21.722;2023-04-10T12:35:54;100843.06;;;10.33;100.00
71299;BME280;59083;47.974;21.722;2023-04-10T12:38:56;100838.81;;;10.47;100.00
71299;BME280;59083;47.974;21.722;2023-04-10T12:45:14;100842.94;;;10.80;100.00
71299;BME280;59083;47.974;21.722;2023-04-10T12:48:22;100831.56;;;10.86;100.00
71299;BME280;59083;47.974;21.722;2023-04-10T12:51:44;100824.69;;;10.92;100.00
71299;BME280;59083;47.974;21.722;2023-04-10T12:54:45;100825.66;;;11.13;100.00
71299;BME280;59083;47.974;21.722;2023-04-10T12:57:47;100814.56;;;11.25;100.00
71299;BME280;59083;47.974;21.722;2023-04-10T13:00:49;100815.22;;;11.27;100.00
71299;BME280;59083;47.974;21.722;2023-04-10T13:03:50;100810.16;;;11.32;100.00
71299;BME280;59083;47.974;21.722;2023-04-10T13:06:51;100809.84;;;11.12;100.00
71299;BME280;59083;47.974;21.722;2023-04-10T13:09:52;100805.94;;;11.37;100.00
71299;BME280;59083;47.974;21.722;2023-04-10T13:12:54;100795.16;;;11.45;100.00
71299;BME280;59083;47.974;21.722;2023-04-10T13:15:55;100797.88;;;11.60;100.00
71299;BME280;59083;47.974;21.722;2023-04-10T13:18:57;100785.91;;;11.56;100.00
71299;BME280;59083;47.974;21.722;2023-04-10T13:21:58;100775.75;;;11.37;100.00
71299;BME280;59083;47.974;21.722;2023-04-10T13:25:01;100771.16;;;11.16;100.00
71299;BME280;59083;47.974;21.722;2023-04-10T13:28:03;100778.88;;;10.88;100.00
71299;BME280;59083;47.974;21.722;2023-04-10T13:31:10;100769.00;;;10.74;100.00
71299;BME280;59083;47.974;21.722;2023-04-10T13:34:11;100774.09;;;10.84;100.00
71299;BME280;59083;47.974;21.722;2023-04-10T13:37:12;100759.97;;;10.98;100.00
71299;BME280;59083;47.974;21.722;2023-04-10T13:40:13;100765.59;;;11.03;100.00
71299;BME280;59083;47.974;21.722;2023-04-10T13:43:14;100762.37;;;11.07;100.00
71299;BME280;59083;47.974;21.722;2023-04-10T13:46:15;100756.69;;;11.10;100.00
71299;BME280;59083;47.974;21.722;2023-04-10T13:49:17;100746.75;;;11.19;100.00
71299;BME280;59083;47.974;21.722;2023-04-10T13:52:19;100736.75;;;11.36;100.00
71299;BME280;59083;47.974;21.722;2023-04-10T13:55:21;100739.03;;;11.53;100.00
71299;BME280;59083;47.974;21.722;2023-04-10T13:58:22;100728.81;;;11.57;100.00
71299;BME280;59083;47.974;21.722;2023-04-10T14:01:23;100730.59;;;11.50;100.00
71299;BME280;59083;47.974;21.722;2023-04-10T14:04:25;100729.38;;;11.38;100.00
71299;BME280;59083;47.974;21.722;2023-04-10T14:07:26;100725.78;;;11.31;100.00
71299;BME280;59083;47.974;21.722;2023-04-10T14:10:27;100726.78;;;11.30;100.00
71299;BME280;59083;47.974;21.722;2023-04-10T14:13:28;100716.13;;;11.30;100.00
71299;BME280;59083;47.974;21.722;2023-04-10T14:16:30;100713.19;;;11.25;100.00
71299;BME280;59083;47.974;21.722;2023-04-10T14:19:33;100716.13;;;11.30;100.00
71299;BME280;59083;47.974;21.722;2023-04-10T14:22:35;100715.66;;;11.41;100.00
71299;BME280;59083;47.974;21.722;2023-04-10T14:25:36;100702.84;;;11.51;100.00
71299;BME280;59083;47.974;21.722;2023-04-10T14:28:37;100712.06;;;11.63;100.00
71299;BME280;59083;47.974;21.722;2023-04-10T14:31:38;100708.59;;;11.77;100.00
71299;BME280;59083;47.974;21.722;2023-04-10T14:34:40;100705.78;;;11.85;100.00
71299;BME280;59083;47.974;21.722;2023-04-10T14:37:41;100710.38;;;11.91;100.00
71299;BME280;59083;47.974;21.722;2023-04-10T14:40:42;100704.03;;;11.92;100.00
71299;BME280;59083;47.974;21.722;2023-04-10T14:43:45;100694.09;;;11.86;100.00
71299;BME280;59083;47.974;21.722;2023-04-10T14:46:46;100705.16;;;11.83;100.00
71299;BME280;59083;47.974;21.722;2023-04-10T14:49:47;100693.97;;;11.73;100.00
71299;BME280;59083;47.974;21.722;2023-04-10T14:52:50;100697.78;;;11.71;100.00
71299;BME280;59083;47.974;21.722;2023-04-10T14:55:51;100690.34;;;11.66;100.00
71299;BME280;59083;47.974;21.722;2023-04-10T14:58:52;100692.00;;;11.67;100.00
71299;BME280;59083;47.974;21.722;2023-04-10T15:01:54;100697.34;;;11.67;100.00
71299;BME280;59083;47.974;21.722;2023-04-10T15:04:55;100693.19;;;11.65;100.00
71299;BME280;59083;47.974;21.722;2023-04-10T15:07:56;100691.63;;;11.70;100.00
71299;BME280;59083;47.974;21.722;2023-04-10T15:10:58;100688.28;;;11.68;100.00
71299;BME280;59083;47.974;21.722;2023-04-10T15:13:59;100685.94;;;11.58;100.00
71299;BME280;59083;47.974;21.722;2023-04-10T15:17:02;100686.84;;;11.51;100.00
71299;BME280;59083;47.974;21.722;2023-04-10T15:20:03;100684.37;;;11.49;100.00
71299;BME280;59083;47.974;21.722;2023-04-10T15:23:05;100687.22;;;11.48;100.00
71299;BME280;59083;47.974;21.722;2023-04-10T15:26:10;100683.16;;;11.52;100.00
71299;BME280;59083;47.974;21.722;2023-04-10T15:29:13;100672.13;;;11.55;100.00
71299;BME280;59083;47.974;21.722;2023-04-10T15:32:14;100676.66;;;11.54;100.00
71299;BME280;59083;47.974;21.722;2023-04-10T15:35:16;100668.47;;;11.56;100.00
71299;BME280;59083;47.974;21.722;2023-04-10T15:38:17;100672.50;;;11.52;100.00
71299;BME280;59083;47.974;21.722;2023-04-10T15:41:18;100669.56;;;11.47;100.00
71299;BME280;59083;47.974;21.722;2023-04-10T15:44:19;100669.38;;;11.48;100.00
71299;BME280;59083;47.974;21.722;2023-04-10T15:47:21;100679.88;;;11.50;100.00
71299;BME280;59083;47.974;21.722;2023-04-10T15:50:22;100674.53;;;11.50;100.00
71299;BME280;59083;47.974;21.722;2023-04-10T15:53:23;100673.50;;;11.51;100.00
71299;BME280;59083;47.974;21.722;2023-04-10T15:56:24;100680.63;;;11.44;100.00
71299;BME280;59083;47.974;21.722;2023-04-10T15:59:26;100671.03;;;11.35;100.00
71299;BME280;59083;47.974;21.722;2023-04-10T16:02:27;100668.09;;;11.30;100.00
71299;BME280;59083;47.974;21.722;2023-04-10T16:05:28;100665.34;;;11.23;100.00
71299;BME280;59083;47.974;21.722;2023-04-10T16:08:29;100677.22;;;11.21;100.00
71299;BME280;59083;47.974;21.722;2023-04-10T16:11:31;100662.78;;;11.15;100.00
71299;BME280;59083;47.974;21.722;2023-04-10T16:14:32;100664.69;;;11.06;100.00